KABE/ABE METAR and TAF weather

Enter ICAO airport designator
Station Type Date Time Source
KABE METAR 2019/08/22 08:51 UTC NOAA

KABE 220851Z 25004KT 10SM CLR 22/20 A2985 RMK AO2 SLP106 T02220200 55008


Station Type Date Time Source
KABE Decoded METAR 2019/08/22 08:51 UTC NOAA

Station name not available
Aug 22, 2019 - 04:51 AM EDT / 2019.08.22 0851 UTC
Wind: from the WSW (250 degrees) at 5 MPH (4 KT):0
Visibility: 10 mile(s):0
Sky conditions: clear
Temperature: 72.0 F (22.2 C)
Dew Point: 68.0 F (20.0 C)
Relative Humidity: 87%
Pressure (altimeter): 29.85 in. Hg (1010 hPa)
Pressure tendency: 0.02 inches (0.8 hPa) lower than three hours ago
ob: KABE 220851Z 25004KT 10SM CLR 22/20 A2985 RMK AO2 SLP106 T02220200 55008
cycle: 9

Station Type Date Time Source
KABE TAF 2019/08/22 06:21 UTC NOAA

TAF KABE 220520Z 2206/2306 24004KT P6SM SCT100
TEMPO 2208/2212 5SM BR
FM221400 27007KT P6SM SCT040
FM222100 27007KT P6SM VCSH SCT050 OVC100
FM230000 VRB05KT 6SM -SHRA BR VCTS OVC060CB

Example: see airport list